Time;durP1;ratioP1;P1;durP2;ratioP2;P2;SDS_P1;SDS_P2;PMS_P1;PMS_P2;Temp;Humidity;BMP_temperature;BMP_pressure;BME280_temperature;BME280_humidity;BME280_pressure;Samples;Min_cycle;Max_cycle;Signal;HPM_P1;HPM_P2
2023/12/30 00:02:15;;;;;;;13.75;1.90;;;;;;;;;;4965565;28;92529;-67
2023/12/30 00:04:42;;;;;;;14.25;2.00;;;;;;;;;;4964626;28;94114;-68
2023/12/30 00:07:08;;;;;;;10.48;1.75;;;;;;;;;;4968160;28;93379;-67
2023/12/30 00:09:35;;;;;;;8.82;1.83;;;;;;;;;;4986176;28;92748;-67
2023/12/30 00:12:02;;;;;;;13.07;2.55;;;;;;;;;;4970801;28;94272;-68
2023/12/30 00:14:29;;;;;;;14.82;2.45;;;;;;;;;;4969696;28;93504;-67
2023/12/30 00:16:55;;;;;;;9.88;1.73;;;;;;;;;;4971724;28;93403;-67
2023/12/30 00:19:21;;;;;;;14.85;1.75;;;;;;;;;;4967780;28;95887;-67
2023/12/30 00:21:48;;;;;;;7.30;1.60;;;;;;;;;;4964658;28;92573;-67
2023/12/30 00:24:14;;;;;;;8.02;1.70;;;;;;;;;;4963373;28;93143;-68
2023/12/30 00:26:40;;;;;;;11.43;1.73;;;;;;;;;;4972006;28;93803;-67
2023/12/30 00:29:07;;;;;;;12.10;2.17;;;;;;;;;;4972635;28;92379;-67
2023/12/30 00:31:33;;;;;;;14.18;2.08;;;;;;;;;;4967782;28;92623;-68
2023/12/30 00:34:00;;;;;;;12.25;2.13;;;;;;;;;;4970583;28;95022;-67
2023/12/30 00:36:27;;;;;;;18.13;2.00;;;;;;;;;;4970419;28;93495;-67
2023/12/30 00:38:54;;;;;;;8.77;1.77;;;;;;;;;;4971099;28;92565;-67
2023/12/30 00:41:21;;;;;;;10.68;1.83;;;;;;;;;;4971264;28;92423;-67
2023/12/30 00:43:48;;;;;;;12.07;2.22;;;;;;;;;;4966244;28;94822;-67
2023/12/30 00:46:14;;;;;;;10.95;1.90;;;;;;;;;;4974578;28;94751;-68
2023/12/30 00:48:40;;;;;;;13.20;1.95;;;;;;;;;;4973135;28;92681;-68
2023/12/30 00:51:07;;;;;;;12.18;2.00;;;;;;;;;;4976107;28;93145;-68
2023/12/30 00:53:33;;;;;;;7.55;1.35;;;;;;;;;;4967337;28;93402;-68
2023/12/30 00:55:59;;;;;;;18.13;1.80;;;;;;;;;;4970103;28;92585;-68
2023/12/30 00:58:26;;;;;;;13.88;2.33;;;;;;;;;;4965600;28;93427;-68
2023/12/30 01:00:52;;;;;;;16.20;1.67;;;;;;;;;;4965764;28;91714;-67
2023/12/30 01:03:19;;;;;;;17.63;2.08;;;;;;;;;;4971776;28;92696;-68
2023/12/30 01:05:47;;;;;;;10.48;1.52;;;;;;;;;;4969904;28;93380;-67
2023/12/30 01:08:13;;;;;;;9.57;1.50;;;;;;;;;;4969452;28;95261;-67
2023/12/30 01:10:40;;;;;;;12.80;1.83;;;;;;;;;;4971457;28;95345;-67
2023/12/30 01:13:06;;;;;;;8.77;2.00;;;;;;;;;;4967419;28;93550;-68
2023/12/30 01:15:33;;;;;;;7.65;1.48;;;;;;;;;;4971605;28;92594;-68
2023/12/30 01:17:59;;;;;;;9.82;1.45;;;;;;;;;;4971297;28;93493;-67
2023/12/30 01:20:26;;;;;;;11.80;2.15;;;;;;;;;;4973651;28;92561;-66
2023/12/30 01:22:52;;;;;;;15.13;2.10;;;;;;;;;;4970665;28;93158;-67
2023/12/30 01:25:18;;;;;;;10.45;1.52;;;;;;;;;;4972868;28;92699;-68
2023/12/30 01:27:45;;;;;;;10.20;1.77;;;;;;;;;;4970520;28;92704;-67
2023/12/30 01:30:11;;;;;;;10.02;1.33;;;;;;;;;;4973726;28;93223;-67
2023/12/30 01:32:38;;;;;;;8.85;1.67;;;;;;;;;;4972365;28;95836;-67
2023/12/30 01:35:05;;;;;;;12.55;2.13;;;;;;;;;;4967667;28;92617;-68
2023/12/30 01:37:31;;;;;;;9.50;1.48;;;;;;;;;;4971252;28;92812;-68
2023/12/30 01:39:57;;;;;;;8.82;1.42;;;;;;;;;;4969444;28;95019;-67
2023/12/30 01:42:24;;;;;;;6.28;1.40;;;;;;;;;;4974137;28;93196;-67
2023/12/30 01:44:50;;;;;;;6.88;1.63;;;;;;;;;;4971441;28;93453;-68
2023/12/30 01:47:17;;;;;;;8.25;1.48;;;;;;;;;;4984909;28;92578;-67
2023/12/30 01:49:44;;;;;;;12.93;1.48;;;;;;;;;;4974131;28;93524;-66
2023/12/30 01:52:11;;;;;;;9.23;1.45;;;;;;;;;;4966909;28;93657;-65
2023/12/30 01:54:39;;;;;;;10.25;1.58;;;;;;;;;;4966813;28;92484;-65
2023/12/30 01:57:06;;;;;;;8.77;1.30;;;;;;;;;;4966315;28;94807;-65
2023/12/30 01:59:32;;;;;;;16.77;1.65;;;;;;;;;;4969206;28;93499;-65
2023/12/30 02:01:59;;;;;;;13.32;1.98;;;;;;;;;;4973546;28;93404;-65
2023/12/30 02:04:25;;;;;;;6.13;1.05;;;;;;;;;;4973473;28;94168;-66
2023/12/30 02:06:52;;;;;;;20.00;3.28;;;;;;;;;;4973760;28;92504;-65
2023/12/30 02:09:18;;;;;;;11.15;1.55;;;;;;;;;;4969888;28;93140;-65
2023/12/30 02:11:45;;;;;;;5.70;1.27;;;;;;;;;;4970286;28;93912;-65
2023/12/30 02:14:27;;;;;;;8.60;1.63;;;;;;;;;;4970800;28;91884;-66
2023/12/30 02:16:53;;;;;;;7.25;1.45;;;;;;;;;;4984296;28;92590;-66
2023/12/30 02:19:20;;;;;;;8.88;1.95;;;;;;;;;;4969915;28;93618;-65
2023/12/30 02:21:47;;;;;;;9.63;1.67;;;;;;;;;;4986476;28;95082;-65
2023/12/30 02:24:13;;;;;;;13.40;1.67;;;;;;;;;;4968752;28;93434;-65
2023/12/30 02:26:40;;;;;;;16.85;1.90;;;;;;;;;;4967267;28;92686;-66
2023/12/30 02:29:07;;;;;;;4.90;1.65;;;;;;;;;;4969011;28;93273;-65
2023/12/30 02:31:35;;;;;;;11.00;1.77;;;;;;;;;;4985655;28;94677;-65
2023/12/30 02:34:01;;;;;;;10.88;2.28;;;;;;;;;;4973770;28;92477;-65
2023/12/30 02:36:28;;;;;;;11.07;1.88;;;;;;;;;;4972529;28;93250;-66
2023/12/30 02:38:56;;;;;;;17.55;2.25;;;;;;;;;;4969240;28;94103;-65
2023/12/30 02:41:22;;;;;;;13.60;2.58;;;;;;;;;;4971720;28;92586;-65
2023/12/30 02:43:54;;;;;;;14.45;1.92;;;;;;;;;;4973223;28;93147;-66
2023/12/30 02:46:20;;;;;;;13.55;2.17;;;;;;;;;;4966382;28;95042;-65
2023/12/30 02:48:47;;;;;;;6.10;1.30;;;;;;;;;;4970611;28;95645;-65
2023/12/30 02:51:14;;;;;;;11.70;1.83;;;;;;;;;;4972807;28;93661;-65
2023/12/30 02:53:41;;;;;;;8.13;1.70;;;;;;;;;;4969976;28;92459;-66
2023/12/30 02:56:16;;;;;;;17.63;1.80;;;;;;;;;;4969643;28;94109;-65
2023/12/30 02:58:43;;;;;;;11.68;2.13;;;;;;;;;;4969969;28;93459;-65
2023/12/30 03:01:09;;;;;;;8.20;1.40;;;;;;;;;;4969241;28;92583;-68
2023/12/30 03:03:36;;;;;;;11.82;1.95;;;;;;;;;;4976640;28;94179;-67
2023/12/30 03:06:02;;;;;;;13.43;2.15;;;;;;;;;;4971290;28;92439;-67
2023/12/30 03:08:29;;;;;;;16.73;1.88;;;;;;;;;;4971558;28;93131;-67
2023/12/30 03:10:55;;;;;;;13.63;2.10;;;;;;;;;;4962578;28;95781;-67
2023/12/30 03:13:22;;;;;;;13.50;2.30;;;;;;;;;;4970845;28;92584;-67
2023/12/30 03:15:48;;;;;;;13.38;2.20;;;;;;;;;;4968807;28;93649;-68
2023/12/30 03:18:15;;;;;;;11.38;1.80;;;;;;;;;;4972822;28;92535;-67
2023/12/30 03:20:41;;;;;;;16.00;2.10;;;;;;;;;;4965996;28;92914;-67
2023/12/30 03:23:08;;;;;;;9.23;1.60;;;;;;;;;;4972476;28;93419;-67
2023/12/30 03:25:37;;;;;;;4.55;1.20;;;;;;;;;;4972745;28;93447;-67
2023/12/30 03:28:03;;;;;;;11.32;1.55;;;;;;;;;;4964861;28;93162;-67
2023/12/30 03:30:30;;;;;;;12.18;1.50;;;;;;;;;;4968323;28;93590;-67
2023/12/30 03:32:56;;;;;;;9.73;1.90;;;;;;;;;;4966209;28;92544;-67
2023/12/30 03:35:22;;;;;;;10.90;1.63;;;;;;;;;;4968514;28;94884;-67
2023/12/30 03:37:49;;;;;;;12.75;1.85;;;;;;;;;;4969786;28;93756;-67
2023/12/30 03:40:15;;;;;;;22.92;2.08;;;;;;;;;;4968876;28;92383;-67
2023/12/30 03:42:42;;;;;;;9.82;1.42;;;;;;;;;;4972399;28;93820;-67
2023/12/30 03:45:08;;;;;;;18.02;2.00;;;;;;;;;;4970912;28;94139;-67
2023/12/30 03:47:35;;;;;;;8.98;1.50;;;;;;;;;;4970698;28;92490;-67
2023/12/30 03:50:01;;;;;;;14.57;2.15;;;;;;;;;;4966216;28;93836;-68
2023/12/30 03:52:29;;;;;;;14.65;1.40;;;;;;;;;;4969711;28;93484;-67
2023/12/30 03:54:55;;;;;;;14.02;2.25;;;;;;;;;;4972349;28;93918;-67
2023/12/30 03:57:22;;;;;;;16.67;2.60;;;;;;;;;;4967864;28;93739;-67
2023/12/30 03:59:48;;;;;;;10.55;1.60;;;;;;;;;;4966205;28;94895;-67
2023/12/30 04:02:18;;;;;;;14.48;2.10;;;;;;;;;;4970363;28;95840;-67
2023/12/30 04:04:44;;;;;;;18.73;1.80;;;;;;;;;;4971655;28;93481;-67
2023/12/30 04:07:10;;;;;;;15.00;1.98;;;;;;;;;;4968634;28;93121;-67
2023/12/30 04:09:37;;;;;;;14.27;2.13;;;;;;;;;;4973020;28;93182;-66
2023/12/30 04:12:03;;;;;;;19.65;1.95;;;;;;;;;;4970280;28;92482;-68
2023/12/30 04:14:30;;;;;;;15.15;1.63;;;;;;;;;;4970893;28;93149;-67
2023/12/30 04:16:56;;;;;;;15.52;1.90;;;;;;;;;;4968496;28;92668;-68
2023/12/30 04:19:23;;;;;;;16.35;2.38;;;;;;;;;;4971442;28;92549;-67
2023/12/30 04:21:50;;;;;;;11.25;1.90;;;;;;;;;;4969301;28;93106;-67
2023/12/30 04:24:21;;;;;;;13.02;1.85;;;;;;;;;;4966053;28;95382;-67
2023/12/30 04:26:47;;;;;;;13.15;2.17;;;;;;;;;;4965525;28;92464;-67
2023/12/30 04:29:14;;;;;;;11.85;2.08;;;;;;;;;;4970361;28;93145;-67
2023/12/30 04:31:40;;;;;;;14.55;1.88;;;;;;;;;;4972645;28;93367;-67
2023/12/30 04:34:07;;;;;;;11.80;2.38;;;;;;;;;;4969395;28;93315;-68
2023/12/30 04:36:33;;;;;;;17.67;2.10;;;;;;;;;;4968489;28;93803;-67
2023/12/30 04:39:00;;;;;;;14.48;1.77;;;;;;;;;;4966101;28;92639;-68
2023/12/30 04:41:26;;;;;;;7.50;1.38;;;;;;;;;;4973293;28;93511;-68
2023/12/30 04:43:54;;;;;;;11.13;1.40;;;;;;;;;;4968326;28;94038;-67
2023/12/30 04:46:20;;;;;;;14.52;2.17;;;;;;;;;;4970700;28;95090;-67
2023/12/30 04:48:52;;;;;;;11.52;1.50;;;;;;;;;;4966350;28;94954;-67
2023/12/30 04:51:18;;;;;;;9.30;1.63;;;;;;;;;;4972091;28;92556;-67
2023/12/30 04:53:45;;;;;;;11.60;1.40;;;;;;;;;;4973961;28;94873;-67
2023/12/30 04:56:14;;;;;;;9.82;1.67;;;;;;;;;;4971871;28;93723;-67
2023/12/30 04:58:41;;;;;;;15.47;1.80;;;;;;;;;;4967246;28;92687;-68
2023/12/30 05:01:08;;;;;;;10.45;2.45;;;;;;;;;;4966434;28;93131;-67
2023/12/30 05:03:35;;;;;;;13.07;2.22;;;;;;;;;;4970711;28;93635;-67
2023/12/30 05:06:02;;;;;;;18.70;1.80;;;;;;;;;;4966735;28;91712;-67
2023/12/30 05:08:28;;;;;;;14.43;2.30;;;;;;;;;;4970126;28;92486;-67
2023/12/30 05:10:55;;;;;;;21.35;2.22;;;;;;;;;;4968040;28;93441;-67
2023/12/30 05:13:21;;;;;;;19.00;1.83;;;;;;;;;;4975406;28;95917;-67
2023/12/30 05:15:49;;;;;;;13.95;2.60;;;;;;;;;;4973555;28;94718;-67
2023/12/30 05:18:16;;;;;;;10.05;2.35;;;;;;;;;;4972779;28;92752;-67
2023/12/30 05:20:42;;;;;;;16.98;2.10;;;;;;;;;;4970965;28;93591;-65
2023/12/30 05:23:09;;;;;;;11.43;2.58;;;;;;;;;;4972626;28;93417;-66
2023/12/30 05:25:35;;;;;;;14.45;2.13;;;;;;;;;;4971447;28;92391;-65
2023/12/30 05:28:02;;;;;;;22.42;2.30;;;;;;;;;;4965503;28;92454;-65
2023/12/30 05:30:28;;;;;;;13.60;1.90;;;;;;;;;;4975304;28;92975;-65
2023/12/30 05:32:55;;;;;;;18.45;2.35;;;;;;;;;;4968889;28;92460;-65
2023/12/30 05:35:21;;;;;;;19.48;2.25;;;;;;;;;;4975138;28;93323;-65
2023/12/30 05:37:48;;;;;;;14.85;2.60;;;;;;;;;;4965722;28;94905;-66
2023/12/30 05:40:14;;;;;;;14.35;3.05;;;;;;;;;;4974233;28;96955;-65
2023/12/30 05:42:40;;;;;;;16.15;2.10;;;;;;;;;;4967929;28;94600;-65
2023/12/30 05:45:07;;;;;;;11.00;1.50;;;;;;;;;;4971224;28;92466;-65
2023/12/30 05:47:33;;;;;;;13.07;2.40;;;;;;;;;;4968166;28;95692;-65
2023/12/30 05:50:00;;;;;;;10.75;2.47;;;;;;;;;;4971886;28;93471;-65
2023/12/30 05:52:26;;;;;;;11.18;1.88;;;;;;;;;;4973930;28;92461;-66
2023/12/30 05:54:53;;;;;;;15.95;2.28;;;;;;;;;;4973028;28;91974;-65
2023/12/30 05:57:19;;;;;;;17.05;2.05;;;;;;;;;;4969919;28;93315;-65
2023/12/30 05:59:45;;;;;;;15.65;2.10;;;;;;;;;;4968820;28;93237;-65
2023/12/30 06:02:12;;;;;;;13.98;2.05;;;;;;;;;;4967467;28;97078;-65
2023/12/30 06:04:39;;;;;;;13.23;1.75;;;;;;;;;;4969816;28;92393;-65
2023/12/30 06:07:05;;;;;;;12.27;2.25;;;;;;;;;;4970683;28;93208;-65
2023/12/30 06:09:32;;;;;;;16.00;3.03;;;;;;;;;;4969699;28;93497;-65
2023/12/30 06:11:59;;;;;;;14.77;1.88;;;;;;;;;;4973706;28;92424;-66
2023/12/30 06:14:25;;;;;;;16.27;2.10;;;;;;;;;;4974524;28;94037;-65
2023/12/30 06:16:52;;;;;;;15.80;1.80;;;;;;;;;;4970717;28;93361;-65
2023/12/30 06:19:18;;;;;;;15.93;2.65;;;;;;;;;;4976884;28;91788;-65
2023/12/30 06:21:45;;;;;;;9.88;2.05;;;;;;;;;;4964900;28;93384;-65
2023/12/30 06:24:11;;;;;;;13.85;1.92;;;;;;;;;;4966319;28;92808;-65
2023/12/30 06:26:38;;;;;;;7.90;1.80;;;;;;;;;;4964084;28;94873;-65
2023/12/30 06:29:05;;;;;;;13.40;2.00;;;;;;;;;;4973281;28;93787;-65
2023/12/30 06:31:32;;;;;;;11.43;1.88;;;;;;;;;;4973641;28;92929;-65
2023/12/30 06:33:58;;;;;;;18.20;2.35;;;;;;;;;;4970368;28;93159;-65
2023/12/30 06:36:25;;;;;;;10.43;2.22;;;;;;;;;;4965635;28;93879;-65
2023/12/30 06:38:51;;;;;;;15.65;2.13;;;;;;;;;;4966502;28;92489;-65
2023/12/30 06:41:20;;;;;;;20.20;2.05;;;;;;;;;;4971584;28;92752;-65
2023/12/30 06:43:47;;;;;;;14.40;1.85;;;;;;;;;;4970532;28;91742;-65
2023/12/30 06:46:13;;;;;;;20.55;2.40;;;;;;;;;;4969614;28;93015;-66
2023/12/30 06:48:40;;;;;;;8.57;1.73;;;;;;;;;;4973275;28;93766;-65
2023/12/30 06:51:10;;;;;;;15.85;3.25;;;;;;;;;;4970869;28;94931;-65
2023/12/30 06:53:36;;;;;;;16.63;2.10;;;;;;;;;;4971945;28;95524;-65
2023/12/30 06:56:02;;;;;;;6.35;1.70;;;;;;;;;;4971909;28;93433;-65
2023/12/30 06:58:29;;;;;;;18.65;2.60;;;;;;;;;;4966377;28;92451;-65
2023/12/30 07:00:56;;;;;;;10.27;2.08;;;;;;;;;;4972093;28;93533;-65
2023/12/30 07:03:23;;;;;;;18.83;2.80;;;;;;;;;;4972956;28;94112;-65
2023/12/30 07:05:49;;;;;;;16.80;3.03;;;;;;;;;;4972226;28;93349;-65
2023/12/30 07:08:16;;;;;;;16.45;2.22;;;;;;;;;;4971440;28;92696;-65
2023/12/30 07:10:42;;;;;;;19.88;1.95;;;;;;;;;;4971060;28;93792;-66
2023/12/30 07:13:09;;;;;;;15.48;1.83;;;;;;;;;;4980348;28;93349;-66
2023/12/30 07:15:36;;;;;;;20.13;2.30;;;;;;;;;;4962996;28;96597;-66
2023/12/30 07:18:02;;;;;;;18.38;2.35;;;;;;;;;;4971999;28;92743;-65
2023/12/30 07:20:29;;;;;;;14.43;2.20;;;;;;;;;;4969337;28;94210;-66
2023/12/30 07:22:56;;;;;;;18.20;2.00;;;;;;;;;;4970430;28;93513;-66
2023/12/30 07:25:22;;;;;;;12.43;2.03;;;;;;;;;;4968811;28;93177;-66
2023/12/30 07:27:49;;;;;;;18.98;2.58;;;;;;;;;;4973006;28;93410;-66
2023/12/30 07:30:15;;;;;;;9.95;1.95;;;;;;;;;;4968715;28;92797;-65
2023/12/30 07:32:42;;;;;;;13.95;2.10;;;;;;;;;;4969307;28;93175;-65
2023/12/30 07:35:09;;;;;;;12.20;2.38;;;;;;;;;;4960537;28;93700;-66
2023/12/30 07:37:35;;;;;;;18.50;2.38;;;;;;;;;;4963963;28;92990;-65
2023/12/30 07:40:02;;;;;;;22.98;3.00;;;;;;;;;;4967286;28;95419;-65
2023/12/30 07:42:29;;;;;;;19.95;3.38;;;;;;;;;;4968436;28;93761;-66
2023/12/30 07:44:56;;;;;;;18.00;2.90;;;;;;;;;;4973562;28;92429;-66
2023/12/30 07:47:22;;;;;;;16.95;3.05;;;;;;;;;;4969348;28;93566;-65
2023/12/30 07:49:49;;;;;;;13.43;2.38;;;;;;;;;;4970459;28;92405;-66
2023/12/30 07:52:16;;;;;;;24.00;4.32;;;;;;;;;;4969148;28;93378;-65
2023/12/30 07:54:43;;;;;;;20.17;3.00;;;;;;;;;;4979544;28;93817;-66
2023/12/30 07:57:09;;;;;;;13.38;2.60;;;;;;;;;;4964586;28;91630;-66
2023/12/30 07:59:35;;;;;;;14.52;3.13;;;;;;;;;;4971570;28;92651;-65
2023/12/30 08:02:02;;;;;;;13.75;2.63;;;;;;;;;;4971939;28;93366;-66
2023/12/30 08:04:29;;;;;;;25.90;2.60;;;;;;;;;;4967470;28;95964;-65
2023/12/30 08:06:55;;;;;;;17.92;3.38;;;;;;;;;;4970249;28;94771;-66
2023/12/30 08:09:22;;;;;;;25.55;4.40;;;;;;;;;;4968430;28;92537;-68
2023/12/30 08:11:49;;;;;;;17.98;2.63;;;;;;;;;;4971342;28;92552;-66
2023/12/30 08:14:27;;;;;;;12.43;2.60;;;;;;;;;;4971279;28;93576;-66
2023/12/30 08:16:54;;;;;;;13.52;3.15;;;;;;;;;;4968342;28;92831;-66
2023/12/30 08:19:20;;;;;;;18.33;3.42;;;;;;;;;;4971848;28;92307;-66
2023/12/30 08:21:47;;;;;;;20.02;3.22;;;;;;;;;;4972734;28;92482;-66
2023/12/30 08:24:16;;;;;;;18.30;3.00;;;;;;;;;;4967024;28;92901;-68
2023/12/30 08:26:42;;;;;;;10.93;2.92;;;;;;;;;;4964701;28;94239;-65
2023/12/30 08:29:09;;;;;;;15.55;2.83;;;;;;;;;;4972591;28;95884;-65
2023/12/30 08:31:36;;;;;;;17.77;3.38;;;;;;;;;;4971337;28;96539;-65
2023/12/30 08:34:04;;;;;;;18.88;3.63;;;;;;;;;;4967506;28;93347;-66
2023/12/30 08:36:31;;;;;;;14.90;3.08;;;;;;;;;;4969006;28;94860;-67
2023/12/30 08:38:57;;;;;;;16.27;3.38;;;;;;;;;;4965091;28;94037;-65
2023/12/30 08:41:27;;;;;;;18.42;4.30;;;;;;;;;;4964089;28;93623;-65
2023/12/30 08:43:56;;;;;;;19.73;4.13;;;;;;;;;;4963695;28;92593;-66
2023/12/30 08:46:22;;;;;;;15.90;2.95;;;;;;;;;;4971388;28;93222;-65
2023/12/30 08:48:49;;;;;;;20.27;3.65;;;;;;;;;;4965019;28;93458;-66
2023/12/30 08:51:15;;;;;;;17.85;3.00;;;;;;;;;;4971064;28;92612;-66
2023/12/30 08:53:42;;;;;;;14.88;3.40;;;;;;;;;;4964302;28;95856;-65
2023/12/30 08:56:08;;;;;;;19.38;3.10;;;;;;;;;;4969483;28;92747;-66
2023/12/30 08:58:35;;;;;;;27.50;3.97;;;;;;;;;;4968195;28;94398;-65
2023/12/30 09:01:01;;;;;;;19.13;3.25;;;;;;;;;;4969330;28;93319;-66
2023/12/30 09:03:28;;;;;;;16.58;2.90;;;;;;;;;;4971798;28;92417;-65
2023/12/30 09:05:54;;;;;;;20.50;4.28;;;;;;;;;;4974714;28;92756;-66
2023/12/30 09:08:20;;;;;;;25.17;3.60;;;;;;;;;;4963963;28;93458;-66
2023/12/30 09:10:47;;;;;;;23.63;3.47;;;;;;;;;;4967292;28;91999;-65
2023/12/30 09:13:13;;;;;;;14.65;3.47;;;;;;;;;;4969079;28;93087;-69
2023/12/30 09:15:40;;;;;;;15.45;3.58;;;;;;;;;;4971796;28;92649;-69
2023/12/30 09:18:06;;;;;;;14.50;2.42;;;;;;;;;;4973089;28;94914;-69
2023/12/30 09:20:36;;;;;;;18.83;3.10;;;;;;;;;;4966940;28;95443;-70
2023/12/30 09:23:02;;;;;;;16.17;3.00;;;;;;;;;;4969173;28;92777;-68
2023/12/30 09:25:30;;;;;;;20.15;3.53;;;;;;;;;;4972273;28;93339;-68
2023/12/30 09:27:56;;;;;;;17.08;3.03;;;;;;;;;;4970041;28;93679;-68
2023/12/30 09:30:23;;;;;;;22.52;3.72;;;;;;;;;;4972708;28;92673;-68
2023/12/30 09:32:49;;;;;;;17.52;4.78;;;;;;;;;;4972439;28;93417;-67
2023/12/30 09:35:16;;;;;;;19.52;3.80;;;;;;;;;;4964286;28;91761;-68
2023/12/30 09:37:42;;;;;;;17.33;3.17;;;;;;;;;;4973667;28;94098;-71
2023/12/30 09:40:09;;;;;;;10.98;2.65;;;;;;;;;;4971678;28;93544;-68
2023/12/30 09:42:37;;;;;;;27.58;3.47;;;;;;;;;;4963196;28;95142;-68
2023/12/30 09:45:04;;;;;;;18.55;3.85;;;;;;;;;;4967184;28;95831;-68
2023/12/30 09:47:31;;;;;;;19.58;3.75;;;;;;;;;;4966821;28;93321;-68
2023/12/30 09:49:58;;;;;;;21.20;3.08;;;;;;;;;;4973758;28;92588;-70
2023/12/30 09:52:24;;;;;;;15.52;2.78;;;;;;;;;;4970481;28;93511;-68
2023/12/30 09:54:51;;;;;;;15.63;3.20;;;;;;;;;;4970990;28;94734;-69
2023/12/30 09:57:17;;;;;;;20.35;3.42;;;;;;;;;;4967107;28;94024;-70
2023/12/30 09:59:45;;;;;;;20.63;3.70;;;;;;;;;;4968577;28;92488;-69
2023/12/30 10:02:12;;;;;;;17.65;3.22;;;;;;;;;;4966952;28;92576;-68
2023/12/30 10:04:38;;;;;;;16.70;3.45;;;;;;;;;;4970467;28;93189;-68
2023/12/30 10:07:04;;;;;;;20.58;3.70;;;;;;;;;;4967710;28;96842;-69
2023/12/30 10:09:31;;;;;;;26.10;3.05;;;;;;;;;;4970470;28;93731;-68
2023/12/30 10:11:58;;;;;;;24.33;4.53;;;;;;;;;;4972521;28;93090;-69
2023/12/30 10:14:24;;;;;;;24.48;3.53;;;;;;;;;;4965848;28;92386;-69
2023/12/30 10:16:51;;;;;;;19.45;4.15;;;;;;;;;;4973706;28;92595;-68
2023/12/30 10:19:17;;;;;;;14.98;2.92;;;;;;;;;;4972654;28;94175;-69
2023/12/30 10:21:43;;;;;;;14.18;3.33;;;;;;;;;;4972716;28;92691;-68
2023/12/30 10:24:10;;;;;;;10.50;3.25;;;;;;;;;;4963146;28;92382;-69
2023/12/30 10:26:39;;;;;;;17.30;3.90;;;;;;;;;;4973524;28;93448;-69
2023/12/30 10:29:06;;;;;;;18.60;3.83;;;;;;;;;;4968908;28;92453;-68
2023/12/30 10:31:32;;;;;;;32.33;5.82;;;;;;;;;;4968672;28;94737;-69
2023/12/30 10:33:58;;;;;;;18.73;3.17;;;;;;;;;;4965930;28;93359;-68
2023/12/30 10:36:29;;;;;;;20.85;4.55;;;;;;;;;;4969250;28;93005;-68
2023/12/30 10:38:55;;;;;;;24.57;4.10;;;;;;;;;;4986299;28;93202;-69
2023/12/30 10:41:21;;;;;;;22.20;4.18;;;;;;;;;;4972149;28;92428;-69
2023/12/30 10:43:48;;;;;;;14.50;3.63;;;;;;;;;;4964535;28;93075;-68
2023/12/30 10:46:17;;;;;;;14.85;4.18;;;;;;;;;;4964300;28;94899;-68
2023/12/30 10:48:51;;;;;;;14.90;2.83;;;;;;;;;;4969639;28;91948;-68
2023/12/30 10:51:22;;;;;;;19.15;3.72;;;;;;;;;;4969518;28;92975;-69
2023/12/30 10:53:50;;;;;;;19.33;5.30;;;;;;;;;;4968290;28;93392;-69
2023/12/30 10:56:22;;;;;;;29.52;4.55;;;;;;;;;;4969616;28;94895;-68
2023/12/30 10:58:50;;;;;;;24.63;5.03;;;;;;;;;;4965244;28;95659;-68
2023/12/30 11:01:19;;;;;;;24.27;5.95;;;;;;;;;;4971848;28;96761;-68
2023/12/30 11:03:46;;;;;;;18.85;4.50;;;;;;;;;;4969221;28;93353;-68
2023/12/30 11:06:22;;;;;;;28.05;5.28;;;;;;;;;;4966742;28;93754;-68
2023/12/30 11:08:52;;;;;;;25.77;3.53;;;;;;;;;;4969736;28;92516;-70
2023/12/30 11:11:22;;;;;;;29.30;3.70;;;;;;;;;;4969793;28;93145;-68
2023/12/30 11:13:49;;;;;;;24.35;3.90;;;;;;;;;;4971658;28;92838;-68
2023/12/30 11:16:16;;;;;;;32.35;4.60;;;;;;;;;;4985858;28;92645;-69
2023/12/30 11:18:45;;;;;;;24.70;4.00;;;;;;;;;;4970694;28;92957;-69
2023/12/30 11:21:12;;;;;;;20.33;3.93;;;;;;;;;;4965325;28;96277;-68
2023/12/30 11:23:38;;;;;;;32.55;3.75;;;;;;;;;;4968377;28;92983;-68
2023/12/30 11:26:05;;;;;;;23.30;4.13;;;;;;;;;;4967341;28;94173;-68
2023/12/30 11:28:32;;;;;;;24.65;4.53;;;;;;;;;;4970127;28;93774;-68
2023/12/30 11:30:59;;;;;;;18.60;3.70;;;;;;;;;;4969064;28;93409;-68
2023/12/30 11:33:26;;;;;;;31.38;5.35;;;;;;;;;;4964516;28;93403;-68
2023/12/30 11:35:54;;;;;;;27.88;3.95;;;;;;;;;;4970394;28;92720;-68
2023/12/30 11:38:20;;;;;;;17.83;3.75;;;;;;;;;;4968167;28;93564;-68
2023/12/30 11:40:51;;;;;;;28.45;4.40;;;;;;;;;;4983897;28;94413;-68
2023/12/30 11:43:21;;;;;;;15.57;3.40;;;;;;;;;;4968894;28;92901;-68
2023/12/30 11:45:48;;;;;;;21.20;5.07;;;;;;;;;;4967366;28;97347;-67
2023/12/30 11:48:14;;;;;;;24.58;4.00;;;;;;;;;;4965015;28;92509;-69
2023/12/30 11:50:41;;;;;;;16.70;4.57;;;;;;;;;;4972744;28;93156;-68
2023/12/30 11:53:07;;;;;;;25.45;4.60;;;;;;;;;;4964668;28;93470;-68
2023/12/30 11:55:34;;;;;;;38.55;5.70;;;;;;;;;;4973095;28;92481;-68
2023/12/30 11:58:00;;;;;;;27.55;6.55;;;;;;;;;;4968145;28;93519;-68
2023/12/30 12:00:26;;;;;;;26.20;6.15;;;;;;;;;;4968447;28;93911;-68
2023/12/30 12:02:54;;;;;;;28.02;5.97;;;;;;;;;;4969193;28;91601;-67
2023/12/30 12:05:20;;;;;;;31.35;7.05;;;;;;;;;;4982770;28;92769;-66
2023/12/30 12:07:47;;;;;;;27.15;6.43;;;;;;;;;;4970381;28;92590;-68
2023/12/30 12:10:14;;;;;;;34.85;7.43;;;;;;;;;;4969709;28;94981;-69
2023/12/30 12:12:45;;;;;;;31.40;7.32;;;;;;;;;;4968546;28;92473;-66
2023/12/30 12:15:13;;;;;;;32.20;8.15;;;;;;;;;;4965451;28;92479;-69
2023/12/30 12:17:40;;;;;;;30.60;9.18;;;;;;;;;;4971443;28;93332;-67
2023/12/30 12:20:08;;;;;;;27.90;8.48;;;;;;;;;;4971316;28;93417;-67
2023/12/30 12:22:34;;;;;;;33.35;8.38;;;;;;;;;;4967779;28;92527;-68
2023/12/30 12:25:04;;;;;;;26.17;8.25;;;;;;;;;;4968309;28;93295;-68
2023/12/30 12:27:30;;;;;;;25.73;8.88;;;;;;;;;;4977996;28;93941;-68
2023/12/30 12:29:58;;;;;;;25.75;9.13;;;;;;;;;;4973445;28;92774;-68
2023/12/30 12:32:24;;;;;;;30.65;9.30;;;;;;;;;;4969582;28;93409;-68
2023/12/30 12:34:53;;;;;;;38.75;10.18;;;;;;;;;;4966647;28;94894;-67
2023/12/30 12:37:21;;;;;;;34.38;10.45;;;;;;;;;;4972342;28;95770;-65
2023/12/30 12:39:48;;;;;;;33.47;10.05;;;;;;;;;;4973128;28;93190;-66
2023/12/30 12:42:14;;;;;;;30.27;11.55;;;;;;;;;;4971358;28;92765;-67
2023/12/30 12:44:55;;;;;;;;;;;;;;;;;;4970661;28;93192;-66
2023/12/30 12:47:21;;;;;;;32.45;10.13;;;;;;;;;;4975985;28;124429;-67
2023/12/30 12:49:48;;;;;;;33.08;10.55;;;;;;;;;;4976496;28;92825;-66
2023/12/30 12:52:15;;;;;;;26.27;9.63;;;;;;;;;;4971236;28;93806;-67
2023/12/30 12:54:41;;;;;;;34.30;10.65;;;;;;;;;;4971968;28;92482;-66
2023/12/30 12:57:08;;;;;;;26.15;10.02;;;;;;;;;;4972756;28;93658;-68
2023/12/30 12:59:35;;;;;;;32.10;9.80;;;;;;;;;;4967137;28;96757;-68
2023/12/30 13:02:02;;;;;;;26.15;9.85;;;;;;;;;;4974012;28;92706;-68
2023/12/30 13:04:28;;;;;;;31.30;9.63;;;;;;;;;;4971233;28;93203;-68
2023/12/30 13:06:54;;;;;;;31.48;8.93;;;;;;;;;;4972361;28;93997;-68
2023/12/30 13:10:17;;;;;;;37.30;9.68;;;;;;;;;;4966816;28;92929;-69
2023/12/30 13:12:08;;;;;;;32.38;8.52;;;;;;;;;;4973096;28;96366;-69
2023/12/30 13:14:34;;;;;;;30.73;8.48;;;;;;;;;;4968356;28;92572;-68
2023/12/30 13:17:11;;;;;;;180.63;140.85;;;;;;;;;;4971154;28;93344;-68
2023/12/30 13:19:40;;;;;;;33.35;12.25;;;;;;;;;;4968935;28;93652;-68
2023/12/30 13:22:07;;;;;;;23.67;8.02;;;;;;;;;;4966524;28;92518;-68
2023/12/30 13:24:34;;;;;;;23.90;8.13;;;;;;;;;;4980124;28;95122;-68
2023/12/30 13:27:01;;;;;;;25.98;7.28;;;;;;;;;;4967183;28;93461;-68
2023/12/30 13:29:28;;;;;;;20.23;6.90;;;;;;;;;;4967797;28;92758;-69
2023/12/30 13:31:54;;;;;;;26.58;7.57;;;;;;;;;;4974551;28;93168;-68
2023/12/30 13:34:21;;;;;;;31.38;7.53;;;;;;;;;;4967137;28;92626;-69
2023/12/30 13:36:56;;;;;;;22.77;5.90;;;;;;;;;;4969878;28;93194;-68
2023/12/30 13:39:23;;;;;;;23.60;6.57;;;;;;;;;;4966409;28;94071;-68
2023/12/30 13:41:50;;;;;;;16.75;4.60;;;;;;;;;;4967654;28;92190;-68
2023/12/30 13:44:16;;;;;;;18.85;5.30;;;;;;;;;;4980062;28;92930;-68
2023/12/30 13:52:00;;;;;;;20.95;5.72;;;;;;;;;;4972282;28;95944;-68
2023/12/30 13:54:27;;;;;;;28.67;6.22;;;;;;;;;;4982834;28;93429;-68
2023/12/30 13:57:04;;;;;;;24.02;6.00;;;;;;;;;;4973171;28;93755;-69
2023/12/30 13:59:30;;;;;;;23.35;5.40;;;;;;;;;;4965064;28;93457;-68
2023/12/30 14:01:57;;;;;;;24.63;5.00;;;;;;;;;;4964895;28;92958;-69
2023/12/30 14:04:25;;;;;;;22.63;5.97;;;;;;;;;;4965720;28;94331;-68
2023/12/30 14:06:52;;;;;;;22.23;4.25;;;;;;;;;;4972575;28;92646;-71
2023/12/30 14:10:18;;;;;;;22.55;4.07;;;;;;;;;;5041133;27;86396;-72
2023/12/30 14:12:45;;;;;;;23.00;5.00;;;;;;;;;;5044880;27;86669;-72
2023/12/30 14:15:13;;;;;;;20.27;5.43;;;;;;;;;;5040028;27;87347;-72
2023/12/30 14:17:42;;;;;;;29.60;6.57;;;;;;;;;;5028762;27;90183;-72
2023/12/30 14:20:10;;;;;;;17.42;4.28;;;;;;;;;;5045165;27;88987;-71
2023/12/30 14:22:37;;;;;;;25.70;8.18;;;;;;;;;;5036871;27;87379;-72
2023/12/30 14:25:04;;;;;;;28.63;5.15;;;;;;;;;;5039545;27;87720;-71
2023/12/30 14:27:32;;;;;;;24.83;4.95;;;;;;;;;;5041973;27;87833;-71
2023/12/30 14:30:05;;;;;;;29.83;4.97;;;;;;;;;;5046231;27;87869;-72
2023/12/30 14:32:31;;;;;;;22.83;4.97;;;;;;;;;;5043672;27;87845;-72
2023/12/30 14:34:58;;;;;;;23.40;4.75;;;;;;;;;;5043057;27;86684;-71
2023/12/30 14:37:24;;;;;;;23.23;5.45;;;;;;;;;;5031881;27;87301;-73